KGLW/GLW METAR and TAF weather

Enter ICAO airport designator
Station Type Date Time Source
KGLW METAR 2019/04/22 18:15 UTC NOAA

KGLW 221815Z AUTO 23005KT 10SM CLR 25/08 A3018 RMK AO2 T02520080


Station Type Date Time Source
KGLW Decoded METAR 2019/04/22 18:15 UTC NOAA

Glasgow, Glasgow Municipal Airport, KY, United States (KGLW) 37-01-54N 085-57-13W
Apr 22, 2019 - 02:15 PM EDT / 2019.04.22 1815 UTC
Wind: from the SW (230 degrees) at 6 MPH (5 KT):0
Visibility: 10 mile(s):0
Sky conditions: clear
Temperature: 77.4 F (25.2 C)
Dew Point: 46.4 F (8.0 C)
Relative Humidity: 33%
Pressure (altimeter): 30.18 in. Hg (1022 hPa)
ob: KGLW 221815Z AUTO 23005KT 10SM CLR 25/08 A3018 RMK AO2 T02520080
cycle: 18

Station Type Date Time Source
KGLW TAF UTC NOAA

Error!

Example: see airport list